sensor_id;sensor_type;location;lat;lon;timestamp;P1;durP1;ratioP1;P2;durP2;ratioP2
24357;SDS011;13668;52.154;5.580;2022-12-26T00:00:53;23.63;;;14.18;;
24357;SDS011;13668;52.154;5.580;2022-12-26T00:03:19;24.13;;;14.75;;
24357;SDS011;13668;52.154;5.580;2022-12-26T00:05:45;24.00;;;14.90;;
24357;SDS011;13668;52.154;5.580;2022-12-26T00:08:11;24.90;;;14.50;;
24357;SDS011;13668;52.154;5.580;2022-12-26T00:10:37;24.52;;;14.90;;
24357;SDS011;13668;52.154;5.580;2022-12-26T00:13:03;24.20;;;14.02;;
24357;SDS011;13668;52.154;5.580;2022-12-26T00:15:29;25.13;;;16.25;;
24357;SDS011;13668;52.154;5.580;2022-12-26T00:17:55;25.88;;;15.15;;
24357;SDS011;13668;52.154;5.580;2022-12-26T00:20:21;25.20;;;15.80;;
24357;SDS011;13668;52.154;5.580;2022-12-26T00:22:47;27.55;;;16.38;;
24357;SDS011;13668;52.154;5.580;2022-12-26T00:25:13;28.15;;;16.00;;
24357;SDS011;13668;52.154;5.580;2022-12-26T00:27:39;26.55;;;16.15;;
24357;SDS011;13668;52.154;5.580;2022-12-26T00:30:05;28.80;;;17.63;;
24357;SDS011;13668;52.154;5.580;2022-12-26T00:32:37;33.42;;;18.58;;
24357;SDS011;13668;52.154;5.580;2022-12-26T00:35:03;30.55;;;19.70;;
24357;SDS011;13668;52.154;5.580;2022-12-26T00:37:29;32.00;;;19.23;;
24357;SDS011;13668;52.154;5.580;2022-12-26T00:39:55;33.00;;;19.05;;
24357;SDS011;13668;52.154;5.580;2022-12-26T00:42:21;30.20;;;18.60;;
24357;SDS011;13668;52.154;5.580;2022-12-26T00:44:47;28.98;;;18.15;;
24357;SDS011;13668;52.154;5.580;2022-12-26T00:47:13;31.98;;;19.55;;
24357;SDS011;13668;52.154;5.580;2022-12-26T00:49:39;32.78;;;20.05;;
24357;SDS011;13668;52.154;5.580;2022-12-26T00:52:05;33.28;;;19.30;;
24357;SDS011;13668;52.154;5.580;2022-12-26T00:54:31;37.33;;;21.38;;
24357;SDS011;13668;52.154;5.580;2022-12-26T00:56:57;35.38;;;20.92;;
24357;SDS011;13668;52.154;5.580;2022-12-26T00:59:24;32.13;;;19.70;;
24357;SDS011;13668;52.154;5.580;2022-12-26T01:01:50;34.42;;;20.77;;
24357;SDS011;13668;52.154;5.580;2022-12-26T01:04:16;33.03;;;20.65;;
24357;SDS011;13668;52.154;5.580;2022-12-26T01:06:42;32.58;;;18.60;;
24357;SDS011;13668;52.154;5.580;2022-12-26T01:09:08;32.47;;;19.35;;
24357;SDS011;13668;52.154;5.580;2022-12-26T01:11:36;36.13;;;19.70;;
24357;SDS011;13668;52.154;5.580;2022-12-26T01:14:12;33.40;;;19.13;;
24357;SDS011;13668;52.154;5.580;2022-12-26T01:16:39;35.45;;;19.80;;
24357;SDS011;13668;52.154;5.580;2022-12-26T01:19:06;34.80;;;19.52;;
24357;SDS011;13668;52.154;5.580;2022-12-26T01:21:32;34.95;;;19.13;;
24357;SDS011;13668;52.154;5.580;2022-12-26T01:23:58;33.25;;;19.23;;
24357;SDS011;13668;52.154;5.580;2022-12-26T01:26:24;36.85;;;19.15;;
24357;SDS011;13668;52.154;5.580;2022-12-26T01:28:51;31.23;;;17.60;;
24357;SDS011;13668;52.154;5.580;2022-12-26T01:31:17;32.63;;;18.40;;
24357;SDS011;13668;52.154;5.580;2022-12-26T01:33:43;32.47;;;18.27;;
24357;SDS011;13668;52.154;5.580;2022-12-26T01:36:09;31.63;;;18.42;;
24357;SDS011;13668;52.154;5.580;2022-12-26T01:38:36;30.80;;;17.30;;
24357;SDS011;13668;52.154;5.580;2022-12-26T01:41:02;31.65;;;18.48;;
24357;SDS011;13668;52.154;5.580;2022-12-26T01:43:46;35.25;;;19.58;;
24357;SDS011;13668;52.154;5.580;2022-12-26T01:46:12;37.83;;;19.65;;
24357;SDS011;13668;52.154;5.580;2022-12-26T01:48:38;35.78;;;20.15;;
24357;SDS011;13668;52.154;5.580;2022-12-26T01:51:04;35.47;;;19.95;;
24357;SDS011;13668;52.154;5.580;2022-12-26T01:53:42;37.08;;;19.90;;
24357;SDS011;13668;52.154;5.580;2022-12-26T01:56:11;35.50;;;19.58;;
24357;SDS011;13668;52.154;5.580;2022-12-26T01:58:59;36.42;;;20.25;;
24357;SDS011;13668;52.154;5.580;2022-12-26T02:01:28;40.58;;;21.38;;
24357;SDS011;13668;52.154;5.580;2022-12-26T02:03:55;43.05;;;23.08;;
24357;SDS011;13668;52.154;5.580;2022-12-26T02:06:40;37.63;;;21.00;;
24357;SDS011;13668;52.154;5.580;2022-12-26T02:09:07;46.05;;;23.48;;
24357;SDS011;13668;52.154;5.580;2022-12-26T02:11:37;41.72;;;22.63;;
24357;SDS011;13668;52.154;5.580;2022-12-26T02:14:05;44.13;;;23.77;;
24357;SDS011;13668;52.154;5.580;2022-12-26T02:16:32;39.15;;;22.38;;
24357;SDS011;13668;52.154;5.580;2022-12-26T02:18:58;41.72;;;23.17;;
24357;SDS011;13668;52.154;5.580;2022-12-26T02:26:34;38.67;;;23.02;;
24357;SDS011;13668;52.154;5.580;2022-12-26T02:32:28;44.33;;;24.35;;
24357;SDS011;13668;52.154;5.580;2022-12-26T02:37:14;42.95;;;23.88;;
24357;SDS011;13668;52.154;5.580;2022-12-26T02:39:50;45.05;;;24.08;;
24357;SDS011;13668;52.154;5.580;2022-12-26T02:47:40;43.25;;;24.92;;
24357;SDS011;13668;52.154;5.580;2022-12-26T02:55:48;45.30;;;25.00;;
24357;SDS011;13668;52.154;5.580;2022-12-26T02:58:52;41.40;;;25.70;;
24357;SDS011;13668;52.154;5.580;2022-12-26T03:01:39;43.55;;;26.40;;
24357;SDS011;13668;52.154;5.580;2022-12-26T03:04:27;44.03;;;26.55;;
24357;SDS011;13668;52.154;5.580;2022-12-26T03:07:26;41.50;;;25.77;;
24357;SDS011;13668;52.154;5.580;2022-12-26T03:10:16;38.75;;;25.67;;
24357;SDS011;13668;52.154;5.580;2022-12-26T03:13:03;44.15;;;26.95;;
24357;SDS011;13668;52.154;5.580;2022-12-26T03:15:59;39.17;;;24.35;;
24357;SDS011;13668;52.154;5.580;2022-12-26T03:18:42;43.08;;;26.20;;
24357;SDS011;13668;52.154;5.580;2022-12-26T03:21:09;41.92;;;25.48;;
24357;SDS011;13668;52.154;5.580;2022-12-26T03:23:36;39.20;;;23.48;;
24357;SDS011;13668;52.154;5.580;2022-12-26T03:26:06;40.20;;;24.30;;
24357;SDS011;13668;52.154;5.580;2022-12-26T03:28:52;41.22;;;25.48;;
24357;SDS011;13668;52.154;5.580;2022-12-26T03:31:38;42.08;;;25.42;;
24357;SDS011;13668;52.154;5.580;2022-12-26T03:34:04;39.13;;;25.27;;
24357;SDS011;13668;52.154;5.580;2022-12-26T03:42:43;43.10;;;27.17;;
24357;SDS011;13668;52.154;5.580;2022-12-26T03:48:30;44.42;;;27.02;;
24357;SDS011;13668;52.154;5.580;2022-12-26T03:51:19;44.42;;;27.60;;
24357;SDS011;13668;52.154;5.580;2022-12-26T03:54:05;43.88;;;28.17;;
24357;SDS011;13668;52.154;5.580;2022-12-26T03:56:52;43.67;;;28.25;;
24357;SDS011;13668;52.154;5.580;2022-12-26T03:59:43;43.17;;;27.83;;
24357;SDS011;13668;52.154;5.580;2022-12-26T04:02:30;36.67;;;25.50;;
24357;SDS011;13668;52.154;5.580;2022-12-26T04:05:17;39.10;;;26.33;;
24357;SDS011;13668;52.154;5.580;2022-12-26T04:08:04;38.47;;;24.48;;
24357;SDS011;13668;52.154;5.580;2022-12-26T04:10:51;34.90;;;24.27;;
24357;SDS011;13668;52.154;5.580;2022-12-26T04:13:44;37.33;;;25.13;;
24357;SDS011;13668;52.154;5.580;2022-12-26T04:16:32;34.33;;;23.10;;
24357;SDS011;13668;52.154;5.580;2022-12-26T04:21:53;31.88;;;21.33;;
24357;SDS011;13668;52.154;5.580;2022-12-26T04:24:44;30.48;;;21.85;;
24357;SDS011;13668;52.154;5.580;2022-12-26T04:27:30;30.05;;;20.63;;
24357;SDS011;13668;52.154;5.580;2022-12-26T04:30:16;31.33;;;22.27;;
24357;SDS011;13668;52.154;5.580;2022-12-26T04:33:06;28.52;;;21.05;;
24357;SDS011;13668;52.154;5.580;2022-12-26T04:35:54;28.17;;;20.02;;
24357;SDS011;13668;52.154;5.580;2022-12-26T04:38:41;28.95;;;20.40;;
24357;SDS011;13668;52.154;5.580;2022-12-26T04:41:28;31.52;;;21.60;;
24357;SDS011;13668;52.154;5.580;2022-12-26T04:44:14;28.45;;;20.27;;
24357;SDS011;13668;52.154;5.580;2022-12-26T04:46:44;33.28;;;23.17;;
24357;SDS011;13668;52.154;5.580;2022-12-26T04:49:12;33.35;;;23.83;;
24357;SDS011;13668;52.154;5.580;2022-12-26T04:51:57;34.42;;;23.20;;
24357;SDS011;13668;52.154;5.580;2022-12-26T04:54:24;34.30;;;23.30;;
24357;SDS011;13668;52.154;5.580;2022-12-26T04:56:50;35.83;;;25.45;;
24357;SDS011;13668;52.154;5.580;2022-12-26T04:59:16;39.33;;;24.88;;
24357;SDS011;13668;52.154;5.580;2022-12-26T05:01:42;40.17;;;25.65;;
24357;SDS011;13668;52.154;5.580;2022-12-26T05:04:27;37.78;;;25.77;;
24357;SDS011;13668;52.154;5.580;2022-12-26T05:07:15;36.45;;;25.33;;
24357;SDS011;13668;52.154;5.580;2022-12-26T05:10:01;40.85;;;26.25;;
24357;SDS011;13668;52.154;5.580;2022-12-26T05:12:28;39.72;;;26.02;;
24357;SDS011;13668;52.154;5.580;2022-12-26T05:14:54;45.67;;;27.17;;
24357;SDS011;13668;52.154;5.580;2022-12-26T05:17:20;41.15;;;27.55;;
24357;SDS011;13668;52.154;5.580;2022-12-26T05:20:05;41.13;;;26.75;;
24357;SDS011;13668;52.154;5.580;2022-12-26T05:22:50;39.72;;;26.42;;
24357;SDS011;13668;52.154;5.580;2022-12-26T05:25:36;42.30;;;26.83;;
24357;SDS011;13668;52.154;5.580;2022-12-26T05:28:21;39.80;;;24.52;;
24357;SDS011;13668;52.154;5.580;2022-12-26T05:31:05;37.70;;;24.80;;
24357;SDS011;13668;52.154;5.580;2022-12-26T05:33:31;38.53;;;24.13;;
24357;SDS011;13668;52.154;5.580;2022-12-26T05:36:16;36.67;;;24.67;;
24357;SDS011;13668;52.154;5.580;2022-12-26T05:38:44;34.63;;;23.02;;
24357;SDS011;13668;52.154;5.580;2022-12-26T05:41:10;36.03;;;24.00;;
24357;SDS011;13668;52.154;5.580;2022-12-26T05:43:36;32.17;;;21.50;;
24357;SDS011;13668;52.154;5.580;2022-12-26T05:46:02;33.90;;;22.23;;
24357;SDS011;13668;52.154;5.580;2022-12-26T05:48:28;34.08;;;20.88;;
24357;SDS011;13668;52.154;5.580;2022-12-26T05:50:57;33.55;;;21.70;;
24357;SDS011;13668;52.154;5.580;2022-12-26T05:53:24;31.88;;;21.00;;
24357;SDS011;13668;52.154;5.580;2022-12-26T05:55:50;28.98;;;19.38;;
24357;SDS011;13668;52.154;5.580;2022-12-26T05:58:16;27.48;;;18.30;;
24357;SDS011;13668;52.154;5.580;2022-12-26T06:00:42;27.05;;;18.40;;
24357;SDS011;13668;52.154;5.580;2022-12-26T06:03:08;22.92;;;15.70;;
24357;SDS011;13668;52.154;5.580;2022-12-26T06:05:33;22.52;;;16.92;;
24357;SDS011;13668;52.154;5.580;2022-12-26T06:08:00;22.85;;;16.02;;
24357;SDS011;13668;52.154;5.580;2022-12-26T06:10:26;19.48;;;14.52;;
24357;SDS011;13668;52.154;5.580;2022-12-26T06:12:53;22.20;;;15.32;;
24357;SDS011;13668;52.154;5.580;2022-12-26T06:15:19;21.60;;;14.85;;
24357;SDS011;13668;52.154;5.580;2022-12-26T06:17:45;20.40;;;13.90;;
24357;SDS011;13668;52.154;5.580;2022-12-26T06:20:11;17.58;;;12.88;;
24357;SDS011;13668;52.154;5.580;2022-12-26T06:22:37;17.48;;;12.77;;
24357;SDS011;13668;52.154;5.580;2022-12-26T06:25:03;19.70;;;12.38;;
24357;SDS011;13668;52.154;5.580;2022-12-26T06:27:29;17.27;;;12.40;;
24357;SDS011;13668;52.154;5.580;2022-12-26T06:29:55;14.52;;;11.38;;
24357;SDS011;13668;52.154;5.580;2022-12-26T06:32:21;15.05;;;11.38;;
24357;SDS011;13668;52.154;5.580;2022-12-26T06:34:47;16.63;;;10.85;;
24357;SDS011;13668;52.154;5.580;2022-12-26T06:37:13;17.25;;;11.95;;
24357;SDS011;13668;52.154;5.580;2022-12-26T06:39:39;17.23;;;11.52;;
24357;SDS011;13668;52.154;5.580;2022-12-26T06:42:05;17.85;;;12.27;;
24357;SDS011;13668;52.154;5.580;2022-12-26T06:44:31;14.27;;;10.80;;
24357;SDS011;13668;52.154;5.580;2022-12-26T06:46:57;14.80;;;11.20;;
24357;SDS011;13668;52.154;5.580;2022-12-26T06:49:23;15.95;;;11.43;;
24357;SDS011;13668;52.154;5.580;2022-12-26T06:51:50;18.67;;;11.77;;
24357;SDS011;13668;52.154;5.580;2022-12-26T06:54:16;14.95;;;11.38;;
24357;SDS011;13668;52.154;5.580;2022-12-26T06:56:42;16.17;;;11.43;;
24357;SDS011;13668;52.154;5.580;2022-12-26T06:59:08;14.02;;;10.73;;
24357;SDS011;13668;52.154;5.580;2022-12-26T07:01:35;15.18;;;11.65;;
24357;SDS011;13668;52.154;5.580;2022-12-26T07:04:01;17.10;;;11.45;;
24357;SDS011;13668;52.154;5.580;2022-12-26T07:06:31;16.38;;;11.82;;
24357;SDS011;13668;52.154;5.580;2022-12-26T07:08:59;15.05;;;10.63;;
24357;SDS011;13668;52.154;5.580;2022-12-26T07:11:26;17.17;;;11.27;;
24357;SDS011;13668;52.154;5.580;2022-12-26T07:13:53;13.57;;;11.45;;
24357;SDS011;13668;52.154;5.580;2022-12-26T07:16:19;15.55;;;11.90;;
24357;SDS011;13668;52.154;5.580;2022-12-26T07:18:46;15.23;;;10.88;;
24357;SDS011;13668;52.154;5.580;2022-12-26T07:21:12;13.63;;;11.25;;
24357;SDS011;13668;52.154;5.580;2022-12-26T07:23:39;15.60;;;11.05;;
24357;SDS011;13668;52.154;5.580;2022-12-26T07:26:05;14.32;;;10.27;;
24357;SDS011;13668;52.154;5.580;2022-12-26T07:28:31;13.45;;;10.65;;
24357;SDS011;13668;52.154;5.580;2022-12-26T07:30:57;13.50;;;10.18;;
24357;SDS011;13668;52.154;5.580;2022-12-26T07:33:24;14.77;;;10.60;;
24357;SDS011;13668;52.154;5.580;2022-12-26T07:35:50;15.20;;;10.68;;
24357;SDS011;13668;52.154;5.580;2022-12-26T07:38:16;14.90;;;10.98;;
24357;SDS011;13668;52.154;5.580;2022-12-26T07:40:42;12.70;;;9.68;;
24357;SDS011;13668;52.154;5.580;2022-12-26T07:43:08;13.98;;;9.82;;
24357;SDS011;13668;52.154;5.580;2022-12-26T07:45:34;16.08;;;11.20;;
24357;SDS011;13668;52.154;5.580;2022-12-26T07:48:00;14.45;;;9.50;;
24357;SDS011;13668;52.154;5.580;2022-12-26T07:50:26;12.13;;;9.55;;
24357;SDS011;13668;52.154;5.580;2022-12-26T07:52:53;14.13;;;10.15;;
24357;SDS011;13668;52.154;5.580;2022-12-26T07:55:19;11.00;;;9.13;;
24357;SDS011;13668;52.154;5.580;2022-12-26T07:57:48;12.27;;;9.45;;
24357;SDS011;13668;52.154;5.580;2022-12-26T08:00:15;12.98;;;9.90;;
24357;SDS011;13668;52.154;5.580;2022-12-26T08:02:42;13.27;;;9.45;;
24357;SDS011;13668;52.154;5.580;2022-12-26T08:05:08;15.10;;;9.95;;
24357;SDS011;13668;52.154;5.580;2022-12-26T08:07:34;12.48;;;8.88;;
24357;SDS011;13668;52.154;5.580;2022-12-26T08:10:00;11.70;;;8.43;;
24357;SDS011;13668;52.154;5.580;2022-12-26T08:12:26;13.45;;;8.45;;
24357;SDS011;13668;52.154;5.580;2022-12-26T08:14:52;12.55;;;8.25;;
24357;SDS011;13668;52.154;5.580;2022-12-26T08:17:18;11.65;;;8.73;;
24357;SDS011;13668;52.154;5.580;2022-12-26T08:19:47;9.82;;;7.82;;
24357;SDS011;13668;52.154;5.580;2022-12-26T08:22:13;11.10;;;7.82;;
24357;SDS011;13668;52.154;5.580;2022-12-26T08:24:39;8.65;;;6.63;;
24357;SDS011;13668;52.154;5.580;2022-12-26T08:27:05;7.35;;;6.40;;
24357;SDS011;13668;52.154;5.580;2022-12-26T08:29:31;7.43;;;5.95;;
24357;SDS011;13668;52.154;5.580;2022-12-26T08:31:57;9.70;;;5.93;;
24357;SDS011;13668;52.154;5.580;2022-12-26T08:34:23;9.50;;;6.95;;
24357;SDS011;13668;52.154;5.580;2022-12-26T08:36:49;13.23;;;6.13;;
24357;SDS011;13668;52.154;5.580;2022-12-26T08:39:16;9.32;;;6.25;;
24357;SDS011;13668;52.154;5.580;2022-12-26T08:41:42;7.93;;;6.22;;
24357;SDS011;13668;52.154;5.580;2022-12-26T08:44:08;10.75;;;5.47;;
24357;SDS011;13668;52.154;5.580;2022-12-26T08:46:35;7.15;;;5.60;;
24357;SDS011;13668;52.154;5.580;2022-12-26T08:49:01;6.50;;;5.07;;
24357;SDS011;13668;52.154;5.580;2022-12-26T08:51:27;10.45;;;5.68;;
24357;SDS011;13668;52.154;5.580;2022-12-26T08:53:53;9.95;;;5.75;;
24357;SDS011;13668;52.154;5.580;2022-12-26T08:56:23;7.97;;;5.07;;
24357;SDS011;13668;52.154;5.580;2022-12-26T08:58:49;9.85;;;5.00;;
24357;SDS011;13668;52.154;5.580;2022-12-26T09:01:16;10.02;;;5.65;;
24357;SDS011;13668;52.154;5.580;2022-12-26T09:03:43;7.90;;;5.47;;
24357;SDS011;13668;52.154;5.580;2022-12-26T09:06:09;5.78;;;4.68;;
24357;SDS011;13668;52.154;5.580;2022-12-26T09:08:36;10.70;;;5.05;;
24357;SDS011;13668;52.154;5.580;2022-12-26T09:11:12;8.77;;;4.78;;
24357;SDS011;13668;52.154;5.580;2022-12-26T09:13:39;6.97;;;4.70;;
24357;SDS011;13668;52.154;5.580;2022-12-26T09:16:15;7.45;;;4.55;;
24357;SDS011;13668;52.154;5.580;2022-12-26T09:18:42;12.90;;;5.43;;
24357;SDS011;13668;52.154;5.580;2022-12-26T09:21:09;8.50;;;4.80;;
24357;SDS011;13668;52.154;5.580;2022-12-26T09:23:35;6.65;;;3.88;;
24357;SDS011;13668;52.154;5.580;2022-12-26T09:28:37;4.93;;;4.10;;
24357;SDS011;13668;52.154;5.580;2022-12-26T09:31:08;6.60;;;4.03;;
24357;SDS011;13668;52.154;5.580;2022-12-26T09:33:34;4.72;;;4.15;;
24357;SDS011;13668;52.154;5.580;2022-12-26T09:36:14;7.30;;;3.47;;
24357;SDS011;13668;52.154;5.580;2022-12-26T09:38:40;5.88;;;3.17;;
24357;SDS011;13668;52.154;5.580;2022-12-26T09:41:11;9.45;;;3.13;;
24357;SDS011;13668;52.154;5.580;2022-12-26T09:46:35;5.68;;;2.72;;
24357;SDS011;13668;52.154;5.580;2022-12-26T09:49:07;3.35;;;2.90;;
24357;SDS011;13668;52.154;5.580;2022-12-26T09:51:33;7.22;;;2.95;;
24357;SDS011;13668;52.154;5.580;2022-12-26T09:54:00;6.07;;;3.13;;
24357;SDS011;13668;52.154;5.580;2022-12-26T09:56:27;8.43;;;2.95;;
24357;SDS011;13668;52.154;5.580;2022-12-26T09:58:56;7.93;;;3.08;;
24357;SDS011;13668;52.154;5.580;2022-12-26T10:01:33;7.90;;;3.13;;
24357;SDS011;13668;52.154;5.580;2022-12-26T10:04:00;4.82;;;2.60;;
24357;SDS011;13668;52.154;5.580;2022-12-26T10:06:36;9.35;;;3.00;;
24357;SDS011;13668;52.154;5.580;2022-12-26T10:14:13;10.55;;;2.83;;
24357;SDS011;13668;52.154;5.580;2022-12-26T10:19:24;10.38;;;2.92;;
24357;SDS011;13668;52.154;5.580;2022-12-26T10:24:19;17.40;;;3.45;;
24357;SDS011;13668;52.154;5.580;2022-12-26T10:26:50;11.63;;;2.30;;
24357;SDS011;13668;52.154;5.580;2022-12-26T10:29:23;11.73;;;2.83;;
24357;SDS011;13668;52.154;5.580;2022-12-26T10:34:45;11.77;;;2.83;;
24357;SDS011;13668;52.154;5.580;2022-12-26T10:42:23;8.27;;;2.20;;
24357;SDS011;13668;52.154;5.580;2022-12-26T10:44:51;6.03;;;2.42;;
24357;SDS011;13668;52.154;5.580;2022-12-26T10:47:32;11.90;;;2.95;;
24357;SDS011;13668;52.154;5.580;2022-12-26T10:50:03;9.55;;;2.42;;
24357;SDS011;13668;52.154;5.580;2022-12-26T10:52:33;12.55;;;2.10;;
24357;SDS011;13668;52.154;5.580;2022-12-26T10:55:02;8.93;;;1.65;;
24357;SDS011;13668;52.154;5.580;2022-12-26T10:57:29;10.68;;;1.70;;
24357;SDS011;13668;52.154;5.580;2022-12-26T10:59:56;6.30;;;1.50;;
24357;SDS011;13668;52.154;5.580;2022-12-26T11:02:40;6.78;;;1.52;;
24357;SDS011;13668;52.154;5.580;2022-12-26T11:07:33;8.20;;;1.65;;
24357;SDS011;13668;52.154;5.580;2022-12-26T11:10:25;6.68;;;1.45;;
24357;SDS011;13668;52.154;5.580;2022-12-26T11:12:58;7.78;;;1.40;;
24357;SDS011;13668;52.154;5.580;2022-12-26T11:17:51;8.57;;;1.55;;
24357;SDS011;13668;52.154;5.580;2022-12-26T11:20:23;4.90;;;1.15;;
24357;SDS011;13668;52.154;5.580;2022-12-26T11:22:54;7.35;;;1.25;;
24357;SDS011;13668;52.154;5.580;2022-12-26T11:25:46;7.70;;;1.42;;
24357;SDS011;13668;52.154;5.580;2022-12-26T11:28:19;1.98;;;0.80;;
24357;SDS011;13668;52.154;5.580;2022-12-26T11:30:48;7.28;;;1.48;;
24357;SDS011;13668;52.154;5.580;2022-12-26T11:38:24;3.17;;;1.00;;
24357;SDS011;13668;52.154;5.580;2022-12-26T11:41:16;5.40;;;1.13;;
24357;SDS011;13668;52.154;5.580;2022-12-26T11:49:02;2.83;;;1.00;;
24357;SDS011;13668;52.154;5.580;2022-12-26T11:51:32;6.20;;;0.90;;
24357;SDS011;13668;52.154;5.580;2022-12-26T11:54:10;5.43;;;1.08;;
24357;SDS011;13668;52.154;5.580;2022-12-26T11:56:37;6.20;;;1.15;;
24357;SDS011;13668;52.154;5.580;2022-12-26T11:59:06;4.15;;;1.20;;
24357;SDS011;13668;52.154;5.580;2022-12-26T12:01:40;4.07;;;0.85;;
24357;SDS011;13668;52.154;5.580;2022-12-26T12:04:07;5.50;;;0.70;;
24357;SDS011;13668;52.154;5.580;2022-12-26T12:11:30;2.42;;;0.80;;
24357;SDS011;13668;52.154;5.580;2022-12-26T12:18:56;4.32;;;1.13;;
24357;SDS011;13668;52.154;5.580;2022-12-26T12:21:34;6.07;;;1.33;;
24357;SDS011;13668;52.154;5.580;2022-12-26T12:26:45;4.88;;;0.77;;
24357;SDS011;13668;52.154;5.580;2022-12-26T12:31:52;4.72;;;0.98;;
24357;SDS011;13668;52.154;5.580;2022-12-26T12:37:16;5.43;;;0.80;;
24357;SDS011;13668;52.154;5.580;2022-12-26T12:40:01;2.88;;;0.70;;
24357;SDS011;13668;52.154;5.580;2022-12-26T12:52:37;3.15;;;1.08;;
24357;SDS011;13668;52.154;5.580;2022-12-26T12:55:12;3.92;;;0.98;;
24357;SDS011;13668;52.154;5.580;2022-12-26T12:57:44;5.25;;;0.80;;
24357;SDS011;13668;52.154;5.580;2022-12-26T13:00:13;2.95;;;0.90;;
24357;SDS011;13668;52.154;5.580;2022-12-26T13:02:45;2.75;;;0.70;;
24357;SDS011;13668;52.154;5.580;2022-12-26T13:08:03;5.57;;;0.80;;
24357;SDS011;13668;52.154;5.580;2022-12-26T13:10:31;9.45;;;1.85;;
24357;SDS011;13668;52.154;5.580;2022-12-26T13:12:59;6.90;;;1.23;;
24357;SDS011;13668;52.154;5.580;2022-12-26T13:15:29;6.88;;;1.23;;
24357;SDS011;13668;52.154;5.580;2022-12-26T13:18:01;7.07;;;1.40;;
24357;SDS011;13668;52.154;5.580;2022-12-26T13:22:59;3.70;;;1.15;;
24357;SDS011;13668;52.154;5.580;2022-12-26T13:25:46;3.15;;;0.73;;
24357;SDS011;13668;52.154;5.580;2022-12-26T13:28:15;4.65;;;1.15;;
24357;SDS011;13668;52.154;5.580;2022-12-26T13:30:42;9.55;;;1.65;;
24357;SDS011;13668;52.154;5.580;2022-12-26T13:33:11;2.15;;;0.80;;
24357;SDS011;13668;52.154;5.580;2022-12-26T13:35:54;4.47;;;1.30;;
24357;SDS011;13668;52.154;5.580;2022-12-26T13:38:21;3.60;;;1.00;;
24357;SDS011;13668;52.154;5.580;2022-12-26T13:40:58;3.78;;;1.02;;
24357;SDS011;13668;52.154;5.580;2022-12-26T13:44:01;4.97;;;1.17;;
24357;SDS011;13668;52.154;5.580;2022-12-26T13:46:34;5.85;;;1.17;;
24357;SDS011;13668;52.154;5.580;2022-12-26T13:49:01;1.85;;;1.20;;
24357;SDS011;13668;52.154;5.580;2022-12-26T13:54:24;2.90;;;1.00;;
24357;SDS011;13668;52.154;5.580;2022-12-26T13:59:40;2.70;;;1.02;;
24357;SDS011;13668;52.154;5.580;2022-12-26T14:02:16;3.92;;;1.00;;
24357;SDS011;13668;52.154;5.580;2022-12-26T14:04:49;6.57;;;1.85;;
24357;SDS011;13668;52.154;5.580;2022-12-26T14:20:32;7.07;;;1.48;;
24357;SDS011;13668;52.154;5.580;2022-12-26T14:25:46;10.95;;;1.67;;
24357;SDS011;13668;52.154;5.580;2022-12-26T14:28:19;7.00;;;1.63;;
24357;SDS011;13668;52.154;5.580;2022-12-26T14:40:59;6.82;;;1.23;;
24357;SDS011;13668;52.154;5.580;2022-12-26T14:43:36;6.47;;;1.50;;
24357;SDS011;13668;52.154;5.580;2022-12-26T14:48:56;8.15;;;1.50;;
24357;SDS011;13668;52.154;5.580;2022-12-26T14:51:26;8.98;;;1.70;;
24357;SDS011;13668;52.154;5.580;2022-12-26T14:54:13;8.68;;;1.77;;
24357;SDS011;13668;52.154;5.580;2022-12-26T14:56:40;8.10;;;1.52;;
24357;SDS011;13668;52.154;5.580;2022-12-26T14:59:50;4.43;;;1.23;;
24357;SDS011;13668;52.154;5.580;2022-12-26T15:02:00;5.57;;;1.55;;
24357;SDS011;13668;52.154;5.580;2022-12-26T15:07:20;9.77;;;2.22;;
24357;SDS011;13668;52.154;5.580;2022-12-26T15:10:01;7.25;;;1.85;;
24357;SDS011;13668;52.154;5.580;2022-12-26T15:15:23;4.28;;;1.08;;
24357;SDS011;13668;52.154;5.580;2022-12-26T15:20:33;5.80;;;1.60;;
24357;SDS011;13668;52.154;5.580;2022-12-26T15:32:55;3.17;;;1.20;;
24357;SDS011;13668;52.154;5.580;2022-12-26T15:35:27;6.53;;;1.70;;
24357;SDS011;13668;52.154;5.580;2022-12-26T15:40:54;3.28;;;1.45;;
24357;SDS011;13668;52.154;5.580;2022-12-26T15:43:33;3.00;;;1.50;;
24357;SDS011;13668;52.154;5.580;2022-12-26T15:46:06;7.13;;;1.20;;
24357;SDS011;13668;52.154;5.580;2022-12-26T15:48:40;8.43;;;1.90;;
24357;SDS011;13668;52.154;5.580;2022-12-26T15:53:46;7.80;;;1.98;;
24357;SDS011;13668;52.154;5.580;2022-12-26T15:59:23;6.38;;;1.60;;
24357;SDS011;13668;52.154;5.580;2022-12-26T16:01:55;5.45;;;1.95;;
24357;SDS011;13668;52.154;5.580;2022-12-26T16:04:31;11.70;;;2.28;;
24357;SDS011;13668;52.154;5.580;2022-12-26T16:10:00;7.85;;;1.92;;
24357;SDS011;13668;52.154;5.580;2022-12-26T16:12:27;8.48;;;2.05;;
24357;SDS011;13668;52.154;5.580;2022-12-26T16:15:01;6.55;;;2.15;;
24357;SDS011;13668;52.154;5.580;2022-12-26T16:17:27;6.13;;;1.90;;
24357;SDS011;13668;52.154;5.580;2022-12-26T16:19:54;4.50;;;1.55;;
24357;SDS011;13668;52.154;5.580;2022-12-26T16:22:37;8.00;;;2.35;;
24357;SDS011;13668;52.154;5.580;2022-12-26T16:25:19;4.65;;;2.35;;
24357;SDS011;13668;52.154;5.580;2022-12-26T16:27:46;13.85;;;9.23;;
24357;SDS011;13668;52.154;5.580;2022-12-26T16:30:23;21.23;;;11.45;;
24357;SDS011;13668;52.154;5.580;2022-12-26T16:32:49;9.68;;;5.40;;
24357;SDS011;13668;52.154;5.580;2022-12-26T16:35:20;9.98;;;5.13;;
24357;SDS011;13668;52.154;5.580;2022-12-26T16:37:47;6.80;;;2.92;;
24357;SDS011;13668;52.154;5.580;2022-12-26T16:42:42;5.65;;;2.40;;
24357;SDS011;13668;52.154;5.580;2022-12-26T16:45:16;6.03;;;3.10;;
24357;SDS011;13668;52.154;5.580;2022-12-26T16:47:43;5.78;;;2.30;;
24357;SDS011;13668;52.154;5.580;2022-12-26T16:50:16;6.22;;;2.75;;
24357;SDS011;13668;52.154;5.580;2022-12-26T16:52:49;5.97;;;2.30;;
24357;SDS011;13668;52.154;5.580;2022-12-26T16:55:37;9.80;;;3.17;;
24357;SDS011;13668;52.154;5.580;2022-12-26T16:58:10;12.57;;;2.53;;
24357;SDS011;13668;52.154;5.580;2022-12-26T17:00:37;8.57;;;3.28;;
24357;SDS011;13668;52.154;5.580;2022-12-26T17:03:03;7.57;;;2.65;;
24357;SDS011;13668;52.154;5.580;2022-12-26T17:05:34;7.85;;;2.85;;
24357;SDS011;13668;52.154;5.580;2022-12-26T17:08:09;7.13;;;2.72;;
24357;SDS011;13668;52.154;5.580;2022-12-26T17:10:37;10.80;;;3.97;;
24357;SDS011;13668;52.154;5.580;2022-12-26T17:13:04;9.23;;;3.45;;
24357;SDS011;13668;52.154;5.580;2022-12-26T17:15:35;7.07;;;4.03;;
24357;SDS011;13668;52.154;5.580;2022-12-26T17:20:46;7.95;;;4.18;;
24357;SDS011;13668;52.154;5.580;2022-12-26T17:23:32;13.27;;;4.70;;
24357;SDS011;13668;52.154;5.580;2022-12-26T17:26:21;8.20;;;3.38;;
24357;SDS011;13668;52.154;5.580;2022-12-26T17:28:48;8.63;;;4.03;;
24357;SDS011;13668;52.154;5.580;2022-12-26T17:31:57;4.55;;;3.00;;
24357;SDS011;13668;52.154;5.580;2022-12-26T17:34:11;8.27;;;3.20;;
24357;SDS011;13668;52.154;5.580;2022-12-26T17:36:38;8.32;;;4.20;;
24357;SDS011;13668;52.154;5.580;2022-12-26T17:39:10;6.57;;;2.90;;
24357;SDS011;13668;52.154;5.580;2022-12-26T17:41:40;12.35;;;4.25;;
24357;SDS011;13668;52.154;5.580;2022-12-26T17:46:51;12.40;;;5.22;;
24357;SDS011;13668;52.154;5.580;2022-12-26T17:49:17;8.63;;;5.13;;
24357;SDS011;13668;52.154;5.580;2022-12-26T17:51:43;5.88;;;3.80;;
24357;SDS011;13668;52.154;5.580;2022-12-26T17:54:09;10.48;;;4.25;;
24357;SDS011;13668;52.154;5.580;2022-12-26T17:56:35;7.15;;;3.80;;